createdAt,value
2018-03-26T00:01:26.486Z,53.97
2018-03-26T00:03:54.715Z,55.57
2018-03-26T00:06:22.243Z,52.63
2018-03-26T00:08:49.764Z,54.50
2018-03-26T00:11:17.314Z,53.40
2018-03-26T00:13:44.779Z,55.00
2018-03-26T00:16:13.028Z,52.37
2018-03-26T00:18:40.494Z,52.20
2018-03-26T00:21:07.978Z,54.23
2018-03-26T00:23:36.246Z,53.10
2018-03-26T00:26:04.486Z,54.90
2018-03-26T00:28:31.954Z,56.40
2018-03-26T00:30:59.438Z,52.40
2018-03-26T00:33:27.674Z,57.57
2018-03-26T00:35:55.157Z,54.87
2018-03-26T00:38:22.664Z,54.50
2018-03-26T00:40:50.180Z,53.43
2018-03-26T00:43:17.633Z,50.87
2018-03-26T00:45:45.909Z,53.53
2018-03-26T00:48:14.135Z,53.07
2018-03-26T00:50:41.606Z,51.67
2018-03-26T00:53:09.110Z,50.77
2018-03-26T00:55:37.346Z,49.23
2018-03-26T00:58:04.852Z,49.03
2018-03-26T01:00:32.312Z,46.40
2018-03-26T01:03:01.735Z,48.43
2018-03-26T01:05:29.251Z,45.77
2018-03-26T01:07:57.484Z,48.10
2018-03-26T01:10:24.954Z,46.20
2018-03-26T01:12:52.453Z,41.77
2018-03-26T01:15:20.678Z,43.10
2018-03-26T01:17:48.142Z,42.87
2018-03-26T01:20:15.660Z,43.30
2018-03-26T01:22:44.141Z,42.43
2018-03-26T01:25:11.625Z,41.93
2018-03-26T01:27:39.103Z,38.17
2018-03-26T01:30:06.576Z,41.10
2018-03-26T01:32:34.068Z,36.37
2018-03-26T01:35:01.588Z,36.90
2018-03-26T01:37:29.040Z,35.67
2018-03-26T01:39:57.294Z,37.07
2018-03-26T01:42:24.746Z,35.87
2018-03-26T01:44:52.340Z,35.70
2018-03-26T01:47:20.574Z,37.00
2018-03-26T01:49:48.074Z,35.73
2018-03-26T01:52:16.534Z,34.20
2018-03-26T01:54:43.995Z,34.93
2018-03-26T01:57:12.229Z,35.40
2018-03-26T01:59:39.725Z,35.03
2018-03-26T02:02:07.187Z,36.10
2018-03-26T02:04:34.647Z,33.83
2018-03-26T02:07:02.886Z,35.53
2018-03-26T02:09:30.352Z,36.00
2018-03-26T02:11:57.826Z,36.60
2018-03-26T02:14:25.303Z,36.10
2018-03-26T02:16:53.534Z,38.50
2018-03-26T02:19:21.002Z,36.87
2018-03-26T02:21:48.463Z,36.73
2018-03-26T02:24:16.019Z,36.80
2018-03-26T02:26:43.641Z,38.53
2018-03-26T02:29:11.824Z,39.53
2018-03-26T02:31:39.310Z,38.23
2018-03-26T02:34:06.777Z,37.80
2018-03-26T02:36:34.242Z,39.57
2018-03-26T02:39:02.492Z,39.50
2018-03-26T02:41:29.963Z,40.63
2018-03-26T02:43:57.422Z,39.97
2018-03-26T02:46:25.680Z,38.83
2018-03-26T02:48:53.135Z,42.70
2018-03-26T02:51:20.613Z,41.00
2018-03-26T02:53:48.931Z,44.63
2018-03-26T02:56:16.454Z,42.00
2018-03-26T02:58:44.775Z,43.57
2018-03-26T03:01:12.237Z,43.80
2018-03-26T03:03:39.727Z,44.23
2018-03-26T03:06:07.199Z,44.33
2018-03-26T03:08:35.426Z,47.20
2018-03-26T03:11:02.920Z,46.80
2018-03-26T03:13:30.382Z,43.00
2018-03-26T03:15:59.463Z,46.70
2018-03-26T03:18:26.947Z,43.67
2018-03-26T03:20:55.187Z,49.57
2018-03-26T03:23:24.180Z,45.10
2018-03-26T03:25:51.654Z,46.40
2018-03-26T03:28:19.902Z,46.30
2018-03-26T03:30:47.365Z,45.77
2018-03-26T03:33:14.845Z,47.40
2018-03-26T03:35:43.093Z,47.37
2018-03-26T03:38:10.571Z,47.60
2018-03-26T03:40:38.038Z,51.97
2018-03-26T03:43:06.273Z,51.83
2018-03-26T03:45:33.896Z,47.53
2018-03-26T03:48:01.353Z,49.73
2018-03-26T03:50:28.821Z,52.47
2018-03-26T03:52:56.306Z,51.97
2018-03-26T03:55:27.553Z,52.90
2018-03-26T03:57:55.038Z,50.40
2018-03-26T04:00:23.270Z,49.63
2018-03-26T04:02:50.739Z,53.77
2018-03-26T04:05:18.238Z,51.93
2018-03-26T04:07:46.471Z,56.70
2018-03-26T04:10:13.959Z,55.63
2018-03-26T04:12:42.216Z,55.70
2018-03-26T04:15:09.680Z,53.50
2018-03-26T04:17:37.144Z,54.80
2018-03-26T04:20:04.642Z,57.13
2018-03-26T04:22:32.106Z,57.88
2018-03-26T04:24:59.575Z,56.70
2018-03-26T04:27:27.058Z,58.13
2018-03-26T04:29:54.529Z,59.70
2018-03-26T04:32:22.751Z,57.73
2018-03-26T04:34:50.235Z,58.03
2018-03-26T04:37:17.717Z,60.00
2018-03-26T04:39:45.188Z,58.00
2018-03-26T04:42:13.452Z,60.67
2018-03-26T04:44:41.707Z,58.73
2018-03-26T04:47:09.178Z,58.70
2018-03-26T04:49:38.281Z,61.00
2018-03-26T04:52:05.779Z,59.13
2018-03-26T04:54:33.289Z,59.72
2018-03-26T04:57:01.532Z,61.17
2018-03-26T04:59:29.004Z,63.07
2018-03-26T05:01:56.498Z,63.50
2018-03-26T05:04:23.962Z,62.10
2018-03-26T05:06:51.462Z,62.90
2018-03-26T05:09:18.946Z,61.13
2018-03-26T05:11:47.184Z,67.15
2018-03-26T05:14:14.670Z,64.67
2018-03-26T05:16:42.911Z,67.90
2018-03-26T05:19:10.386Z,65.55
2018-03-26T05:21:38.668Z,64.62
2018-03-26T05:24:06.249Z,66.18
2018-03-26T05:26:34.478Z,66.30
2018-03-26T05:29:02.094Z,70.07
2018-03-26T05:31:29.574Z,65.30
2018-03-26T05:33:57.047Z,67.00
2018-03-26T05:36:24.549Z,70.35
2018-03-26T05:38:52.054Z,69.07
2018-03-26T05:41:19.583Z,66.65
2018-03-26T05:43:47.881Z,69.30
2018-03-26T05:46:15.391Z,71.80
2018-03-26T05:48:42.858Z,67.50
2018-03-26T05:51:11.327Z,66.80
2018-03-26T05:53:38.803Z,68.20
2018-03-26T05:56:07.055Z,62.40
2018-03-26T05:58:34.560Z,61.73
2018-03-26T06:01:02.026Z,62.67
2018-03-26T06:03:29.499Z,61.23
2018-03-26T06:05:56.985Z,57.70
2018-03-26T06:08:25.004Z,50.13
2018-03-26T06:10:52.487Z,49.07
2018-03-26T06:13:19.959Z,50.00
2018-03-26T06:15:47.427Z,47.97
2018-03-26T06:18:14.924Z,47.43
2018-03-26T06:20:42.394Z,43.43
2018-03-26T06:23:09.863Z,41.67
2018-03-26T06:25:37.482Z,49.27
2018-03-26T06:28:05.712Z,49.07
2018-03-26T06:30:33.223Z,52.40
2018-03-26T06:33:00.827Z,49.50
2018-03-26T06:35:28.294Z,43.60
2018-03-26T06:40:58.158Z,44.23
2018-03-26T06:43:26.679Z,46.30
2018-03-26T06:45:54.519Z,44.70
2018-03-26T06:48:23.904Z,45.73
2018-03-26T06:50:52.354Z,47.50
2018-03-26T06:53:21.015Z,43.27
2018-03-26T06:55:48.502Z,40.77
2018-03-26T06:58:15.998Z,40.90
2018-03-26T07:00:45.079Z,41.50
2018-03-26T07:03:13.335Z,38.90
2018-03-26T07:05:41.542Z,39.70
2018-03-26T07:08:09.161Z,37.80
2018-03-26T07:10:37.790Z,37.03
2018-03-26T07:13:05.926Z,39.10
2018-03-26T07:15:34.162Z,37.53
2018-03-26T07:18:02.362Z,35.93
2018-03-26T07:20:30.666Z,36.60
2018-03-26T07:23:00.558Z,35.10
2018-03-26T07:25:28.981Z,34.30
2018-03-26T07:27:56.445Z,35.47
2018-03-26T07:30:23.921Z,33.87
2018-03-26T07:32:51.615Z,32.03
2018-03-26T07:35:19.078Z,31.53
2018-03-26T07:37:47.303Z,32.20
2018-03-26T07:40:14.784Z,34.70
2018-03-26T07:42:42.242Z,32.17
2018-03-26T07:45:10.910Z,33.17
2018-03-26T07:47:38.374Z,32.90
2018-03-26T07:50:05.843Z,30.40
2018-03-26T07:52:33.418Z,29.20
2018-03-26T07:55:01.648Z,27.40
2018-03-26T07:57:29.106Z,28.57
2018-03-26T07:59:56.607Z,27.37
2018-03-26T08:02:24.852Z,26.70
2018-03-26T08:04:52.318Z,25.30
2018-03-26T08:07:19.892Z,25.70
2018-03-26T08:09:47.353Z,24.07
2018-03-26T08:12:15.589Z,23.83
2018-03-26T08:14:43.283Z,23.90
2018-03-26T08:17:10.800Z,24.00
2018-03-26T08:19:38.990Z,23.93
2018-03-26T08:22:06.480Z,28.10
2018-03-26T08:24:34.731Z,24.57
2018-03-26T08:27:02.202Z,22.20
2018-03-26T08:29:31.192Z,23.73
2018-03-26T08:31:58.760Z,22.80
2018-03-26T08:34:26.234Z,22.83
2018-03-26T08:36:54.481Z,22.40
2018-03-26T08:39:21.950Z,21.70
2018-03-26T08:41:49.413Z,20.83
2018-03-26T08:44:17.654Z,20.90
2018-03-26T08:46:45.158Z,19.77
2018-03-26T08:49:12.649Z,21.83
2018-03-26T08:51:40.114Z,21.80
2018-03-26T08:54:07.579Z,19.40
2018-03-26T08:56:35.073Z,19.77
2018-03-26T08:59:03.296Z,19.90
2018-03-26T09:01:30.771Z,20.63
2018-03-26T09:03:58.258Z,20.80
2018-03-26T09:06:26.490Z,18.03
2018-03-26T09:08:54.182Z,19.27
2018-03-26T09:11:21.666Z,18.07
2018-03-26T09:13:49.136Z,18.10
2018-03-26T09:16:16.626Z,17.43
2018-03-26T09:18:44.106Z,17.20
2018-03-26T09:21:11.574Z,17.40
2018-03-26T09:23:39.833Z,18.13
2018-03-26T09:26:07.326Z,17.50
2018-03-26T09:28:35.553Z,15.07
2018-03-26T09:31:03.050Z,18.10
2018-03-26T09:33:32.392Z,16.40
2018-03-26T09:35:59.851Z,17.27
2018-03-26T09:38:27.346Z,17.17
2018-03-26T09:40:54.848Z,17.77
2018-03-26T09:43:22.310Z,15.90
2018-03-26T09:45:49.783Z,17.53
2018-03-26T09:48:17.250Z,15.80
2018-03-26T09:50:44.718Z,15.57
2018-03-26T09:53:13.260Z,15.30
2018-03-26T09:55:43.626Z,16.83
2018-03-26T09:58:11.084Z,13.97
2018-03-26T10:00:44.982Z,15.30
2018-03-26T10:03:13.128Z,13.90
2018-03-26T10:05:40.647Z,12.77
2018-03-26T10:08:08.119Z,14.30
2018-03-26T10:10:35.610Z,12.00
2018-03-26T10:13:03.082Z,13.03
2018-03-26T10:15:37.067Z,12.40
2018-03-26T10:18:04.534Z,12.53
2018-03-26T10:20:32.022Z,10.50
2018-03-26T10:22:59.666Z,10.10
2018-03-26T10:25:27.133Z,11.20
2018-03-26T10:27:54.612Z,9.57
2018-03-26T10:30:22.856Z,8.73
2018-03-26T10:32:50.316Z,9.43
2018-03-26T10:35:17.819Z,8.53
2018-03-26T10:37:45.282Z,7.93
2018-03-26T10:40:12.749Z,8.67
2018-03-26T10:42:40.230Z,8.23
2018-03-26T10:45:07.717Z,7.97
2018-03-26T10:47:35.967Z,8.67
2018-03-26T10:50:03.423Z,7.60
2018-03-26T10:52:30.882Z,7.97
2018-03-26T10:54:58.397Z,8.67
2018-03-26T10:57:25.855Z,7.70
2018-03-26T10:59:53.338Z,8.77
2018-03-26T11:02:20.876Z,8.60
2018-03-26T11:04:48.331Z,7.33
2018-03-26T11:07:15.792Z,6.97
2018-03-26T11:09:43.276Z,6.50
2018-03-26T11:12:10.748Z,6.47
2018-03-26T11:14:38.261Z,5.20
2018-03-26T11:17:05.755Z,5.37
2018-03-26T11:19:33.228Z,5.07
2018-03-26T11:22:00.680Z,4.27
2018-03-26T11:24:28.158Z,4.70
2018-03-26T11:26:56.386Z,5.40
2018-03-26T11:29:23.893Z,5.50
2018-03-26T11:31:51.346Z,4.63
2018-03-26T11:34:18.811Z,4.97
2018-03-26T11:36:46.302Z,5.10
2018-03-26T11:39:13.776Z,4.77
2018-03-26T11:41:41.246Z,5.00
2018-03-26T11:44:08.759Z,4.40
2018-03-26T11:46:36.211Z,4.60
2018-03-26T11:49:03.671Z,4.70
2018-03-26T11:51:31.167Z,3.73
2018-03-26T11:53:58.622Z,4.67
2018-03-26T11:56:26.085Z,3.97
2018-03-26T11:58:54.340Z,4.27
2018-03-26T12:01:21.804Z,3.10
2018-03-26T12:03:49.272Z,4.80
2018-03-26T12:06:16.760Z,4.57
2018-03-26T12:08:44.223Z,3.60
2018-03-26T12:11:11.710Z,3.73
2018-03-26T12:13:39.178Z,3.90
2018-03-26T12:16:06.650Z,3.57
2018-03-26T12:18:34.107Z,4.30
2018-03-26T12:21:01.767Z,4.30
2018-03-26T12:23:41.144Z,3.80
2018-03-26T12:26:08.627Z,3.27
2018-03-26T12:28:48.004Z,3.50
2018-03-26T12:31:15.492Z,3.57
2018-03-26T12:34:07.586Z,3.33
2018-03-26T12:36:35.063Z,4.03
2018-03-26T12:39:03.293Z,4.30
2018-03-26T12:41:30.755Z,3.70
2018-03-26T12:43:58.544Z,3.77
2018-03-26T12:46:44.327Z,3.77
2018-03-26T12:49:11.989Z,4.10
2018-03-26T12:51:51.522Z,4.00
2018-03-26T12:54:19.010Z,4.23
2018-03-26T12:56:47.244Z,4.97
2018-03-26T12:59:14.707Z,4.00
2018-03-26T13:01:53.985Z,3.40
2018-03-26T13:04:21.448Z,3.90
2018-03-26T13:06:48.958Z,3.93
2018-03-26T13:09:16.444Z,3.57
2018-03-26T13:11:44.672Z,4.13
2018-03-26T13:14:12.143Z,4.60
2018-03-26T13:16:39.657Z,4.20
2018-03-26T13:19:07.114Z,4.50
2018-03-26T13:21:34.571Z,5.17
2018-03-26T13:24:02.283Z,4.10
2018-03-26T13:26:29.738Z,4.87
2018-03-26T13:28:57.214Z,5.73
2018-03-26T13:31:25.694Z,4.70
2018-03-26T13:33:53.919Z,5.43
2018-03-26T13:36:21.369Z,5.07
2018-03-26T13:38:49.079Z,4.60
2018-03-26T13:41:17.297Z,5.20
2018-03-26T13:43:44.773Z,5.60
2018-03-26T13:46:12.251Z,5.10
2018-03-26T13:48:39.715Z,4.53
2018-03-26T13:51:07.175Z,5.90
2018-03-26T13:53:34.661Z,5.57
2018-03-26T13:56:02.135Z,5.70
2018-03-26T13:58:29.595Z,5.50
2018-03-26T14:00:57.104Z,4.80
2018-03-26T14:03:24.564Z,5.30
2018-03-26T14:05:52.840Z,7.63
2018-03-26T14:08:33.043Z,6.00
2018-03-26T14:11:12.613Z,5.90
2018-03-26T14:14:02.623Z,5.63
2018-03-26T14:16:42.654Z,5.40
2018-03-26T14:19:10.127Z,5.03
2018-03-26T14:21:38.350Z,5.40
2018-03-26T14:24:05.898Z,5.70
2018-03-26T14:26:34.081Z,5.40
2018-03-26T14:29:01.539Z,6.57
2018-03-26T14:31:29.032Z,7.53
2018-03-26T14:33:56.489Z,6.30
2018-03-26T14:36:23.966Z,7.30
2018-03-26T14:38:52.214Z,6.10
2018-03-26T14:41:20.763Z,5.23
2018-03-26T14:43:49.361Z,5.77
2018-03-26T14:46:17.710Z,5.57
2018-03-26T14:48:46.370Z,6.70
2018-03-26T14:51:16.729Z,4.83
2018-03-26T14:53:45.381Z,5.50
2018-03-26T14:56:13.624Z,5.13
2018-03-26T14:58:45.457Z,5.80
2018-03-26T15:01:14.125Z,5.93
2018-03-26T15:03:41.600Z,5.70
2018-03-26T15:06:09.059Z,6.70
2018-03-26T15:08:36.531Z,6.83
2018-03-26T15:11:04.002Z,6.93
2018-03-26T15:13:31.466Z,5.90
2018-03-26T15:15:59.696Z,5.57
2018-03-26T15:18:27.200Z,6.40
2018-03-26T15:20:54.658Z,6.17
2018-03-26T15:23:22.112Z,5.53
2018-03-26T15:25:50.368Z,6.37
2018-03-26T15:28:17.840Z,5.00
2018-03-26T15:30:45.299Z,5.10
2018-03-26T15:33:12.954Z,5.57
2018-03-26T15:35:40.531Z,5.00
2018-03-26T15:38:08.766Z,5.07
2018-03-26T15:40:36.266Z,5.07
2018-03-26T15:43:04.513Z,5.77
2018-03-26T15:45:32.003Z,5.23
2018-03-26T15:48:00.243Z,5.30
2018-03-26T15:50:27.716Z,5.00
2018-03-26T15:52:55.978Z,4.83
2018-03-26T15:55:23.505Z,4.80
2018-03-26T15:57:50.933Z,4.97
2018-03-26T16:00:18.399Z,5.33
2018-03-26T16:02:51.711Z,4.43
2018-03-26T16:05:19.174Z,4.50
2018-03-26T16:07:46.651Z,4.23
2018-03-26T16:10:14.922Z,4.70
2018-03-26T16:12:42.376Z,4.13
2018-03-26T16:15:09.838Z,5.00
2018-03-26T16:17:37.329Z,4.70
2018-03-26T16:20:05.580Z,5.07
2018-03-26T16:22:33.043Z,4.70
2018-03-26T16:25:01.403Z,5.00
2018-03-26T16:27:28.874Z,5.57
2018-03-26T16:29:56.341Z,5.70
2018-03-26T16:32:24.590Z,4.10
2018-03-26T16:34:52.061Z,4.93
2018-03-26T16:37:19.515Z,4.77
2018-03-26T16:39:46.986Z,4.70
2018-03-26T16:42:23.893Z,4.60
2018-03-26T16:44:51.457Z,4.60
2018-03-26T16:47:18.912Z,5.20
2018-03-26T16:49:46.369Z,4.37
2018-03-26T16:52:13.861Z,4.83
2018-03-26T16:54:41.327Z,4.80
2018-03-26T16:57:08.787Z,4.97
2018-03-26T16:59:36.275Z,4.90
2018-03-26T17:02:03.748Z,5.97
2018-03-26T17:04:31.227Z,5.27
2018-03-26T17:06:58.709Z,4.67
2018-03-26T17:09:26.167Z,5.37
2018-03-26T17:11:53.648Z,5.70
2018-03-26T17:14:21.871Z,4.93
2018-03-26T17:16:49.344Z,5.10
2018-03-26T17:19:16.827Z,5.40
2018-03-26T17:21:44.299Z,4.73
2018-03-26T17:24:11.851Z,5.57
2018-03-26T17:26:39.304Z,5.20
2018-03-26T17:29:06.782Z,5.20
2018-03-26T17:31:34.272Z,4.93
2018-03-26T17:34:01.743Z,4.90
2018-03-26T17:36:29.224Z,5.30
2018-03-26T17:38:56.706Z,4.73
2018-03-26T17:41:24.173Z,5.20
2018-03-26T17:43:51.740Z,5.90
2018-03-26T17:46:19.447Z,6.00
2018-03-26T17:48:46.926Z,5.60
2018-03-26T17:51:15.156Z,6.10
2018-03-26T17:53:42.657Z,6.20
2018-03-26T17:56:10.876Z,5.87
2018-03-26T17:58:38.335Z,6.17
2018-03-26T18:01:05.822Z,6.10
2018-03-26T18:03:33.278Z,6.50
2018-03-26T18:06:00.738Z,6.10
2018-03-26T18:08:28.228Z,7.00
2018-03-26T18:10:55.692Z,7.27
2018-03-26T18:13:23.180Z,8.13
2018-03-26T18:15:50.645Z,8.23
2018-03-26T18:18:18.111Z,7.20
2018-03-26T18:20:45.616Z,7.60
2018-03-26T18:23:13.082Z,7.10
2018-03-26T18:25:40.548Z,7.70
2018-03-26T18:28:08.025Z,7.10
2018-03-26T18:30:35.474Z,8.10
2018-03-26T18:33:03.112Z,8.50
2018-03-26T18:35:30.597Z,8.77
2018-03-26T18:37:58.055Z,9.33
2018-03-26T18:40:25.580Z,13.60
2018-03-26T18:42:53.047Z,11.03
2018-03-26T18:45:20.508Z,10.50
2018-03-26T18:47:48.052Z,10.17
2018-03-26T18:50:15.508Z,9.80
2018-03-26T18:52:42.974Z,11.10
2018-03-26T18:55:10.483Z,11.20
2018-03-26T18:57:37.935Z,12.27
2018-03-26T19:00:06.170Z,13.07
2018-03-26T19:02:33.666Z,12.47
2018-03-26T19:05:01.157Z,12.20
2018-03-26T19:07:28.683Z,13.30
2018-03-26T19:09:56.940Z,13.13
2018-03-26T19:12:25.923Z,13.23
2018-03-26T19:14:53.384Z,13.93
2018-03-26T19:17:20.884Z,12.43
2018-03-26T19:19:49.102Z,12.20
2018-03-26T19:22:16.590Z,12.50
2018-03-26T19:24:44.078Z,15.00
2018-03-26T19:27:11.552Z,16.50
2018-03-26T19:29:39.894Z,14.73
2018-03-26T19:32:08.184Z,13.67
2018-03-26T19:34:35.899Z,13.33
2018-03-26T19:37:03.371Z,13.73
2018-03-26T19:39:32.002Z,18.90
2018-03-26T19:42:01.801Z,14.83
2018-03-26T19:44:29.379Z,13.30
2018-03-26T19:46:58.363Z,16.03
2018-03-26T19:49:25.831Z,16.93
2018-03-26T19:51:53.991Z,15.50
2018-03-26T19:54:22.246Z,15.30
2018-03-26T19:56:51.323Z,16.27
2018-03-26T19:59:20.568Z,17.77
2018-03-26T20:01:50.747Z,17.60
2018-03-26T20:04:18.946Z,15.30
2018-03-26T20:06:46.517Z,15.73
2018-03-26T20:09:14.076Z,17.60
2018-03-26T20:11:41.554Z,18.30
2018-03-26T20:14:10.422Z,16.60
2018-03-26T20:16:39.725Z,18.83
2018-03-26T20:19:07.180Z,18.37
2018-03-26T20:21:35.658Z,17.67
2018-03-26T20:24:03.163Z,19.20
2018-03-26T20:26:32.250Z,20.13
2018-03-26T20:29:01.764Z,20.90
2018-03-26T20:31:30.339Z,19.30
2018-03-26T20:33:59.840Z,22.07
2018-03-26T20:36:27.357Z,22.47
2018-03-26T20:38:55.076Z,21.87
2018-03-26T20:41:23.107Z,22.07
2018-03-26T20:43:51.892Z,22.03
2018-03-26T20:46:20.374Z,22.87
2018-03-26T20:48:48.330Z,24.20
2018-03-26T20:51:16.718Z,23.70
2018-03-26T20:53:44.245Z,24.90
2018-03-26T20:56:12.532Z,24.07
2018-03-26T20:58:40.028Z,26.47
2018-03-26T21:01:07.523Z,25.53
2018-03-26T21:03:35.745Z,27.40
2018-03-26T21:06:03.266Z,25.77
2018-03-26T21:08:30.726Z,25.53
2018-03-26T21:10:58.206Z,28.97
2018-03-26T21:13:25.693Z,29.60
2018-03-26T21:15:53.166Z,30.53
2018-03-26T21:18:21.413Z,30.10
2018-03-26T21:20:48.894Z,30.87
2018-03-26T21:23:16.378Z,32.40
2018-03-26T21:25:44.599Z,31.50
2018-03-26T21:28:12.096Z,29.90
2018-03-26T21:30:40.330Z,30.67
2018-03-26T21:33:07.796Z,33.60
2018-03-26T21:35:35.277Z,32.90
2018-03-26T21:38:03.534Z,34.77
2018-03-26T21:40:30.978Z,36.17
2018-03-26T21:42:58.472Z,32.67
2018-03-26T21:45:26.712Z,32.60
2018-03-26T21:47:54.189Z,33.90
2018-03-26T21:50:21.682Z,33.83
2018-03-26T21:52:49.149Z,35.20
2018-03-26T21:55:16.619Z,35.60
2018-03-26T21:57:44.119Z,35.70
2018-03-26T22:00:17.619Z,34.73
2018-03-26T22:02:45.882Z,38.03
2018-03-26T22:05:13.470Z,39.37
2018-03-26T22:07:41.695Z,37.97
2018-03-26T22:10:09.170Z,38.63
2018-03-26T22:12:36.634Z,35.60
2018-03-26T22:15:04.110Z,37.80
2018-03-26T22:17:32.551Z,36.50
2018-03-26T22:20:00.028Z,34.57
2018-03-26T22:22:28.281Z,32.37
2018-03-26T22:24:55.770Z,35.57
2018-03-26T22:27:23.232Z,36.00
2018-03-26T22:29:51.471Z,34.87
2018-03-26T22:32:18.965Z,40.00
2018-03-26T22:34:47.217Z,39.80
2018-03-26T22:37:14.690Z,42.10
2018-03-26T22:39:42.954Z,38.97
2018-03-26T22:42:10.516Z,39.83
2018-03-26T22:44:38.077Z,42.77
2018-03-26T22:47:05.631Z,39.27
2018-03-26T22:49:33.114Z,40.60
2018-03-26T22:52:00.638Z,39.57
2018-03-26T22:54:28.208Z,39.43
2018-03-26T22:56:55.762Z,39.30
2018-03-26T22:59:23.323Z,39.50
2018-03-26T23:01:51.594Z,42.40
2018-03-26T23:04:19.062Z,40.93
2018-03-26T23:06:47.311Z,39.77
2018-03-26T23:09:14.775Z,38.07
2018-03-26T23:11:42.348Z,39.23
2018-03-26T23:14:10.605Z,40.60
2018-03-26T23:16:38.079Z,38.60
2018-03-26T23:19:05.558Z,39.70
2018-03-26T23:21:33.793Z,37.23
2018-03-26T23:24:01.263Z,37.53
2018-03-26T23:26:30.230Z,36.40
2018-03-26T23:28:57.726Z,36.23
2018-03-26T23:31:25.954Z,34.97
2018-03-26T23:33:53.463Z,37.23
2018-03-26T23:36:20.973Z,35.50
2018-03-26T23:38:49.150Z,37.70
2018-03-26T23:41:16.622Z,36.00
2018-03-26T23:43:44.119Z,37.90
2018-03-26T23:46:11.574Z,36.47
2018-03-26T23:48:39.048Z,36.33
2018-03-26T23:51:06.524Z,37.50
2018-03-26T23:53:33.989Z,36.90
2018-03-26T23:56:01.496Z,38.57
2018-03-26T23:58:28.947Z,36.17
